createdAt,value
2018-06-10T00:01:18.633Z,"    0"
2018-06-10T00:06:14.549Z,"    0"
2018-06-10T00:11:10.802Z,"    0"
2018-06-10T00:16:06.543Z,"    0"
2018-06-10T00:21:02.225Z,"    0"
2018-06-10T00:25:58.247Z,"    0"
2018-06-10T00:30:53.827Z,"    0"
2018-06-10T00:35:51.100Z,"    0"
2018-06-10T00:40:47.076Z,"    0"
2018-06-10T00:45:43.512Z,"    0"
2018-06-10T00:50:39.212Z,"    0"
2018-06-10T00:55:34.969Z,"    0"
2018-06-10T01:00:30.731Z,"    0"
2018-06-10T01:05:26.445Z,"    0"
2018-06-10T01:10:22.196Z,"    0"
2018-06-10T01:15:18.155Z,"    0"
2018-06-10T01:20:14.274Z,"    0"
2018-06-10T01:25:10.325Z,"    0"
2018-06-10T01:30:06.409Z,"    0"
2018-06-10T01:35:04.187Z,"    0"
2018-06-10T01:39:59.691Z,"    0"
2018-06-10T01:44:56.750Z,"    0"
2018-06-10T01:49:52.975Z,"    0"
2018-06-10T01:54:48.868Z,"    0"
2018-06-10T01:59:44.956Z,"    0"
2018-06-10T02:04:40.717Z,"    0"
2018-06-10T02:09:38.389Z,"    0"
2018-06-10T02:14:33.897Z,"    0"
2018-06-10T02:19:29.670Z,"    0"
2018-06-10T02:24:25.561Z,"    0"
2018-06-10T02:29:21.573Z,"    0"
2018-06-10T02:34:18.375Z,"    0"
2018-06-10T02:39:15.182Z,"    0"
2018-06-10T02:44:10.469Z,"    0"
2018-06-10T02:49:07.746Z,"    0"
2018-06-10T02:54:04.215Z,"    4"
2018-06-10T02:58:59.998Z,"    4"
2018-06-10T03:03:55.906Z,"    8"
2018-06-10T03:08:51.824Z,"    8"
2018-06-10T03:13:48.897Z,"   12"
2018-06-10T03:18:44.191Z,"   16"
2018-06-10T03:23:40.430Z,"   20"
2018-06-10T03:28:36.219Z,"   28"
2018-06-10T03:33:33.086Z,"   40"
2018-06-10T03:38:28.754Z,"   60"
2018-06-10T03:43:25.574Z,"   88"
2018-06-10T03:48:22.194Z,"  120"
2018-06-10T03:53:17.695Z,"  144"
2018-06-10T03:58:13.503Z,"  192"
2018-06-10T04:03:09.595Z,"  216"
2018-06-10T04:08:05.372Z,"  236"
2018-06-10T04:13:02.452Z,"  324"
2018-06-10T04:17:58.981Z,"  364"
2018-06-10T04:22:55.416Z,"  448"
2018-06-10T04:27:50.947Z,"  548"
2018-06-10T04:32:46.498Z,"  680"
2018-06-10T04:37:43.384Z,"  928"
2018-06-10T04:42:38.828Z," 1176"
2018-06-10T04:47:34.741Z," 1384"
2018-06-10T04:52:30.920Z," 1576"
2018-06-10T04:57:26.768Z," 1256"
2018-06-10T05:02:22.670Z," 1740"
2018-06-10T05:07:19.829Z," 1928"
2018-06-10T05:12:16.570Z," 2092"
2018-06-10T05:17:12.579Z," 2004"
2018-06-10T05:22:08.491Z," 1896"
2018-06-10T05:27:04.483Z," 1908"
2018-06-10T05:32:00.455Z," 2012"
2018-06-10T05:36:56.356Z," 2224"
2018-06-10T05:41:52.727Z," 2552"
2018-06-10T05:46:48.893Z," 2924"
2018-06-10T05:51:45.935Z," 2924"
2018-06-10T05:56:41.751Z," 2716"
2018-06-10T06:01:37.768Z," 2596"
2018-06-10T06:06:33.729Z," 2576"
2018-06-10T06:11:30.743Z," 2796"
2018-06-10T06:16:27.346Z," 2864"
2018-06-10T06:21:23.126Z," 2876"
2018-06-10T06:26:20.191Z," 2484"
2018-06-10T06:31:16.970Z," 2636"
2018-06-10T06:36:13.871Z," 2676"
2018-06-10T06:41:09.519Z," 2676"
2018-06-10T06:46:05.450Z," 2948"
2018-06-10T06:51:02.416Z," 3604"
2018-06-10T06:55:59.717Z," 3916"
2018-06-10T07:00:56.330Z," 4588"
2018-06-10T07:05:53.194Z," 5468"
2018-06-10T07:10:48.817Z," 6708"
2018-06-10T07:15:45.519Z," 7012"
2018-06-10T07:20:41.503Z," 8328"
2018-06-10T07:25:38.179Z," 8052"
2018-06-10T07:30:34.287Z," 7172"
2018-06-10T07:35:30.355Z,10792
2018-06-10T07:40:26.744Z,11100
2018-06-10T07:45:23.240Z," 9456"
2018-06-10T07:50:19.086Z," 9920"
2018-06-10T07:55:15.038Z," 7552"
2018-06-10T08:00:11.043Z,11976
2018-06-10T08:05:07.615Z,15696
2018-06-10T08:10:04.237Z,15340
2018-06-10T08:15:00.545Z,13464
2018-06-10T08:19:57.217Z,19520
2018-06-10T08:24:53.584Z,13020
2018-06-10T08:29:49.876Z,12532
2018-06-10T08:34:45.719Z,10436
2018-06-10T08:39:42.947Z," 9844"
2018-06-10T08:44:38.368Z,11372
2018-06-10T08:49:34.959Z,10272
2018-06-10T08:54:30.769Z," 9304"
2018-06-10T08:59:26.575Z,16992
2018-06-10T09:04:23.721Z,13628
2018-06-10T09:09:19.546Z," 9320"
2018-06-10T09:14:15.628Z,18432
2018-06-10T09:19:14.305Z,19360
2018-06-10T09:24:10.481Z,15656
2018-06-10T09:29:06.531Z,19392
2018-06-10T09:34:03.607Z,91808
2018-06-10T09:39:01.586Z,26176
2018-06-10T09:44:01.747Z,80480
2018-06-10T09:48:58.669Z,18080
2018-06-10T09:53:53.025Z,13700
2018-06-10T09:58:48.706Z," 9376"
2018-06-10T10:03:43.858Z,11916
2018-06-10T10:08:39.893Z,12612
2018-06-10T10:13:35.206Z,16128
2018-06-10T10:18:31.468Z,34656
2018-06-10T10:23:30.491Z,29408
2018-06-10T10:28:28.310Z,44320
2018-06-10T10:33:26.096Z,24000
2018-06-10T10:38:20.536Z,13004
2018-06-10T10:43:16.397Z,16448
2018-06-10T10:48:12.891Z,43008
2018-06-10T10:53:10.657Z,23520
2018-06-10T10:58:06.549Z,64064
2018-06-10T11:03:03.871Z,53248
2018-06-10T11:08:02.897Z,68576
2018-06-10T11:12:59.577Z,89664
2018-06-10T11:17:56.859Z,23872
2018-06-10T11:22:50.285Z,18784
2018-06-10T11:27:45.815Z,18112
2018-06-10T11:32:40.645Z,25728
2018-06-10T11:37:37.906Z,21632
2018-06-10T11:42:33.628Z,82560
2018-06-10T11:47:31.094Z,32672
2018-06-10T11:52:27.923Z,22496
2018-06-10T11:57:22.487Z,15420
2018-06-10T12:02:18.239Z,17344
2018-06-10T12:07:14.535Z,13772
2018-06-10T12:12:10.226Z,24832
2018-06-10T12:17:05.948Z,55968
2018-06-10T12:22:03.230Z,23040
2018-06-10T12:27:01.241Z,34016
2018-06-10T12:31:57.618Z,51488
2018-06-10T12:36:53.797Z,12684
2018-06-10T12:41:51.017Z,15880
2018-06-10T12:46:46.175Z,18400
2018-06-10T12:51:42.000Z,15816
2018-06-10T12:56:38.016Z,12152
2018-06-10T13:01:34.634Z,67456
2018-06-10T13:06:31.101Z,47872
2018-06-10T13:11:28.531Z,52672
2018-06-10T13:16:24.914Z,25984
2018-06-10T13:21:21.557Z,43168
2018-06-10T13:26:18.579Z,58816
2018-06-10T13:31:14.349Z,20000
2018-06-10T13:36:08.807Z,15016
2018-06-10T13:41:03.713Z," 9852"
2018-06-10T13:45:59.171Z,16096
2018-06-10T13:50:55.059Z,14128
2018-06-10T13:55:51.740Z,18112
2018-06-10T14:00:48.579Z,17312
2018-06-10T14:05:44.513Z,12780
2018-06-10T14:10:40.137Z," 9384"
2018-06-10T14:15:35.969Z," 8820"
2018-06-10T14:20:31.625Z," 8088"
2018-06-10T14:25:28.188Z," 6476"
2018-06-10T14:30:23.484Z," 6404"
2018-06-10T14:35:19.391Z," 6676"
2018-06-10T14:40:15.290Z," 8240"
2018-06-10T14:45:12.719Z," 7308"
2018-06-10T14:50:09.675Z," 9488"
2018-06-10T14:55:05.425Z," 7660"
2018-06-10T15:00:02.424Z," 8196"
2018-06-10T15:04:58.505Z," 8332"
2018-06-10T15:09:55.501Z," 7224"
2018-06-10T15:14:51.515Z," 7756"
2018-06-10T15:19:47.186Z," 7104"
2018-06-10T15:24:43.250Z," 7240"
2018-06-10T15:29:39.422Z," 6256"
2018-06-10T15:34:35.336Z," 6612"
2018-06-10T15:39:31.539Z," 7324"
2018-06-10T15:44:28.350Z," 8016"
2018-06-10T15:49:24.440Z," 5440"
2018-06-10T15:54:20.249Z," 4732"
2018-06-10T15:59:15.947Z," 3768"
2018-06-10T16:04:12.256Z," 4876"
2018-06-10T16:09:08.865Z," 4724"
2018-06-10T16:14:04.592Z," 3664"
2018-06-10T16:19:00.285Z," 3292"
2018-06-10T16:23:56.447Z," 3184"
2018-06-10T16:28:53.018Z," 2936"
2018-06-10T16:33:48.554Z," 2836"
2018-06-10T16:38:44.455Z," 2740"
2018-06-10T16:43:40.468Z," 2772"
2018-06-10T16:48:37.021Z," 2740"
2018-06-10T16:53:32.825Z," 2672"
2018-06-10T16:58:28.701Z," 2668"
2018-06-10T17:03:25.672Z," 2680"
2018-06-10T17:08:21.273Z," 2632"
2018-06-10T17:13:17.297Z," 2872"
2018-06-10T17:18:13.356Z," 2564"
2018-06-10T17:23:09.173Z," 2464"
2018-06-10T17:28:05.352Z," 2768"
2018-06-10T17:33:00.996Z," 2332"
2018-06-10T17:37:57.717Z," 2308"
2018-06-10T17:42:53.157Z," 2316"
2018-06-10T17:47:50.607Z," 2092"
2018-06-10T17:52:45.990Z," 2004"
2018-06-10T17:57:42.914Z," 1964"
2018-06-10T18:02:38.786Z," 1964"
2018-06-10T18:07:34.555Z," 2068"
2018-06-10T18:12:30.426Z," 2216"
2018-06-10T18:17:26.285Z," 2348"
2018-06-10T18:22:22.155Z," 1968"
2018-06-10T18:27:18.013Z," 1804"
2018-06-10T18:32:14.063Z," 1832"
2018-06-10T18:37:10.876Z," 1784"
2018-06-10T18:42:06.917Z," 1692"
2018-06-10T18:47:02.537Z," 1520"
2018-06-10T18:51:59.430Z," 1344"
2018-06-10T18:56:55.369Z," 1148"
2018-06-10T19:01:51.487Z," 1004"
2018-06-10T19:06:47.135Z,"  892"
2018-06-10T19:11:43.897Z,"  752"
2018-06-10T19:16:39.807Z,"  644"
2018-06-10T19:21:35.356Z,"  536"
2018-06-10T19:26:30.961Z,"  428"
2018-06-10T19:31:26.800Z,"  332"
2018-06-10T19:36:22.676Z,"  256"
2018-06-10T19:41:18.538Z,"  192"
2018-06-10T19:46:15.320Z,"  132"
2018-06-10T19:51:10.687Z,"   88"
2018-06-10T19:56:06.362Z,"   60"
2018-06-10T20:01:02.434Z,"   36"
2018-06-10T20:05:58.414Z,"   24"
2018-06-10T20:10:54.185Z,"   12"
2018-06-10T20:15:50.147Z,"    8"
2018-06-10T20:20:47.242Z,"    4"
2018-06-10T20:25:43.669Z,"    0"
2018-06-10T20:30:40.078Z,"    0"
2018-06-10T20:35:35.762Z,"    0"
2018-06-10T20:40:32.390Z,"    0"
2018-06-10T20:45:28.991Z,"    0"
2018-06-10T20:50:24.389Z,"    0"
2018-06-10T20:55:20.895Z,"    0"
2018-06-10T21:00:17.133Z,"    0"
2018-06-10T21:05:12.938Z,"    0"
2018-06-10T21:10:09.860Z,"    0"
2018-06-10T21:15:06.135Z,"    0"
2018-06-10T21:20:01.821Z,"    0"
2018-06-10T21:24:59.260Z,"    0"
2018-06-10T21:29:55.778Z,"    0"
2018-06-10T21:34:51.158Z,"    0"
2018-06-10T21:39:46.969Z,"    0"
2018-06-10T21:44:42.883Z,"    0"
2018-06-10T21:49:39.157Z,"    0"
2018-06-10T21:54:34.886Z,"    0"
2018-06-10T21:59:30.690Z,"    0"
2018-06-10T22:04:26.387Z,"    0"
2018-06-10T22:09:22.133Z,"    0"
2018-06-10T22:14:17.820Z,"    0"
2018-06-10T22:19:14.964Z,"    0"
2018-06-10T22:24:10.738Z,"    0"
2018-06-10T22:29:06.672Z,"    0"
2018-06-10T22:34:02.975Z,"    0"
2018-06-10T22:39:00.081Z,"    0"
2018-06-10T22:43:55.646Z,"    0"
2018-06-10T22:48:51.487Z,"    0"
2018-06-10T22:53:47.372Z,"    0"
2018-06-10T22:58:42.974Z,"    0"
2018-06-10T23:03:40.027Z,"    0"
2018-06-10T23:08:36.585Z,"    0"
2018-06-10T23:13:32.233Z,"    0"
2018-06-10T23:18:27.924Z,"    0"
2018-06-10T23:23:24.709Z,"    0"
2018-06-10T23:28:20.152Z,"    0"
2018-06-10T23:33:16.011Z,"    0"
2018-06-10T23:38:11.916Z,"    0"
2018-06-10T23:43:08.406Z,"    0"
2018-06-10T23:48:04.264Z,"    0"
2018-06-10T23:53:00.081Z,"    0"
2018-06-10T23:57:55.803Z,"    0"
